Pagrindinis puslapis
METAR-TAF:

METAR-TAF

Oro uostai :

Florianopolis, Santa Katarina, Brazilija

platuma: 27-40S, ilguma: 048-33W, Aukštis: 5 m

Dabartinis oras

Ataskaita buvo paskelbta 1 valandą ir 16 minutes, ne 13:00 UTC
Vėjas 5 kt iš Pietų
Temperatūra 18°C
Drėgmė 73%
Slėgis 1017 hPa
Matomumas 10 km arba daugiau
Išsisklaidę debesys ne aukštis 2300 ft
Su prošvaistėmis ne aukštis 5000 ft

METAR: SBFL 011300Z 17005KT 9999 SCT023 BKN050 18/13 Q1017

Laikas: 11:16 (14:16 UTC)

Prognozė

Ataskaita buvo paskelbta 5 valandos ir 16 minutes, ne 09:00 UTC
Prognozė galioja nuo 01 metu 12 UTC su 02 metu 12 UTC
Vėjas 6 kt iš Vakarų/Šiaurės Vakarų
Matomumas 10 km arba daugiau
nėra debesų žemiau 1500 m ir nėra kamuolinių lietaus debesų

TAF: SBFL 010900Z 0112/0212 30006KT CAVOK TX26/0116Z TN11/0204Z RMK PEA

Orai ataskaitas ir orų prognozės (METAR, TAF).

turimą stotys yra geltonos ir raudonos taškus žemėlapyje.

Perkelti pele per norėdami pamatyti stoties vardą.

Tada spustelėkite, norėdami matyti oro stebėjimo ir prognozės.

Norėdami pakeisti žemėlapį: spustelėkite ant žalios mygtukų su juodo kryžiaus žemyn,; žalią mygtuką su brūkšneliu, jei norite nutolinti; arba žalių rodyklių gretimoms žemėlapius.


METAR-TAF: